createdAt,value
2018-12-13T00:01:01.196Z,12.90
2018-12-13T00:02:04.410Z,13.13
2018-12-13T00:03:06.849Z,12.80
2018-12-13T00:04:09.363Z,13.55
2018-12-13T00:05:11.807Z,12.82
2018-12-13T00:06:14.281Z,13.00
2018-12-13T00:07:16.735Z,13.68
2018-12-13T00:08:19.168Z,12.35
2018-12-13T00:09:21.611Z,13.30
2018-12-13T00:10:24.048Z,12.65
2018-12-13T00:11:26.499Z,13.83
2018-12-13T00:12:28.947Z,12.98
2018-12-13T00:13:31.388Z,13.62
2018-12-13T00:14:33.823Z,15.13
2018-12-13T00:15:36.258Z,15.75
2018-12-13T00:16:38.716Z,13.98
2018-12-13T00:17:41.163Z,14.28
2018-12-13T00:18:43.595Z,13.70
2018-12-13T00:19:46.031Z,12.63
2018-12-13T00:20:48.493Z,15.58
2018-12-13T00:21:50.949Z,13.70
2018-12-13T00:22:53.412Z,13.68
2018-12-13T00:23:55.872Z,14.03
2018-12-13T00:24:58.315Z,24.12
2018-12-13T00:26:00.749Z,18.52
2018-12-13T00:27:03.289Z,15.72
2018-12-13T00:28:05.972Z,15.43
2018-12-13T00:29:08.424Z,14.53
2018-12-13T00:30:10.860Z,13.85
2018-12-13T00:31:13.292Z,14.83
2018-12-13T00:32:15.794Z,13.53
2018-12-13T00:33:18.242Z,14.20
2018-12-13T00:34:20.697Z,13.43
2018-12-13T00:35:23.128Z,13.80
2018-12-13T00:36:25.572Z,14.58
2018-12-13T00:37:28.028Z,14.25
2018-12-13T00:38:30.483Z,14.58
2018-12-13T00:39:32.932Z,13.93
2018-12-13T00:40:35.402Z,15.75
2018-12-13T00:41:37.833Z,14.40
2018-12-13T00:42:40.283Z,14.30
2018-12-13T00:43:42.736Z,14.85
2018-12-13T00:44:45.175Z,13.55
2018-12-13T00:45:47.631Z,13.58
2018-12-13T00:46:50.089Z,13.98
2018-12-13T00:47:52.555Z,14.50
2018-12-13T00:48:55.036Z,13.40
2018-12-13T00:49:57.502Z,14.45
2018-12-13T00:50:59.955Z,13.98
2018-12-13T00:52:02.405Z,14.65
2018-12-13T00:53:04.871Z,14.70
2018-12-13T00:54:07.355Z,14.50
2018-12-13T00:55:09.800Z,15.05
2018-12-13T00:56:12.251Z,13.55
2018-12-13T00:57:14.688Z,14.78
2018-12-13T00:58:17.144Z,14.58
2018-12-13T00:59:19.595Z,14.07
2018-12-13T01:00:22.070Z,14.15
2018-12-13T01:01:24.523Z,13.55
2018-12-13T01:02:27.082Z,14.23
2018-12-13T01:03:29.547Z,13.58
2018-12-13T01:04:31.991Z,14.07
2018-12-13T01:05:34.435Z,13.35
2018-12-13T01:06:36.872Z,14.20
2018-12-13T01:07:39.334Z,13.43
2018-12-13T01:08:41.771Z,14.63
2018-12-13T01:09:44.289Z,14.60
2018-12-13T01:10:46.745Z,14.07
2018-12-13T01:11:49.175Z,14.35
2018-12-13T01:12:51.631Z,14.80
2018-12-13T01:13:54.102Z,14.25
2018-12-13T01:14:56.626Z,14.23
2018-12-13T01:15:59.067Z,14.43
2018-12-13T01:17:01.506Z,14.75
2018-12-13T01:18:03.965Z,15.15
2018-12-13T01:19:06.395Z,15.03
2018-12-13T01:20:08.823Z,14.95
2018-12-13T01:21:11.278Z,15.53
2018-12-13T01:22:13.749Z,15.95
2018-12-13T01:23:16.216Z,15.05
2018-12-13T01:24:18.679Z,16.25
2018-12-13T01:25:21.124Z,15.83
2018-12-13T01:26:23.567Z,16.93
2018-12-13T01:27:26.005Z,15.50
2018-12-13T01:28:28.470Z,16.23
2018-12-13T01:29:30.938Z,15.32
2018-12-13T01:30:33.377Z,14.68
2018-12-13T01:31:35.826Z,14.20
2018-12-13T01:32:38.263Z,15.65
2018-12-13T01:33:40.750Z,17.75
2018-12-13T01:34:43.205Z,16.07
2018-12-13T01:35:45.652Z,16.48
2018-12-13T01:36:52.409Z,16.40
2018-12-13T01:37:52.555Z,16.40
2018-12-13T01:38:55.014Z,15.53
2018-12-13T01:39:57.465Z,17.95
2018-12-13T01:41:00.023Z,19.02
2018-12-13T01:42:02.469Z,17.15
2018-12-13T01:43:04.925Z,17.67
2018-12-13T01:44:07.377Z,17.92
2018-12-13T01:45:09.923Z,17.07
2018-12-13T01:46:12.371Z,16.10
2018-12-13T01:47:14.825Z,17.62
2018-12-13T01:48:17.275Z,15.72
2018-12-13T01:49:19.738Z,16.93
2018-12-13T01:50:22.202Z,15.68
2018-12-13T01:51:24.643Z,16.10
2018-12-13T01:52:27.085Z,14.55
2018-12-13T01:53:29.526Z,14.73
2018-12-13T01:54:31.983Z,15.08
2018-12-13T01:55:34.447Z,14.87
2018-12-13T01:56:36.997Z,14.70
2018-12-13T01:57:39.431Z,13.35
2018-12-13T01:58:41.871Z,13.40
2018-12-13T01:59:44.329Z,12.35
2018-12-13T02:00:46.768Z,13.75
2018-12-13T02:01:49.216Z,12.80
2018-12-13T02:02:51.648Z,11.83
2018-12-13T02:03:54.100Z,12.03
2018-12-13T02:04:56.556Z,11.50
2018-12-13T02:05:59.019Z,11.43
2018-12-13T02:07:01.463Z,10.78
2018-12-13T02:08:03.924Z,10.45
2018-12-13T02:09:06.738Z,10.82
2018-12-13T02:10:09.294Z,10.48
2018-12-13T02:11:11.776Z,10.78
2018-12-13T02:12:14.225Z,10.28
2018-12-13T02:13:16.693Z,9.55
2018-12-13T02:14:19.123Z,8.38
2018-12-13T02:15:21.587Z,8.25
2018-12-13T02:16:24.023Z,8.13
2018-12-13T02:17:26.465Z,7.97
2018-12-13T02:18:28.911Z,7.70
2018-12-13T02:19:31.345Z,8.45
2018-12-13T02:20:33.804Z,7.92
2018-12-13T02:21:36.268Z,7.67
2018-12-13T02:22:38.704Z,7.33
2018-12-13T02:23:41.161Z,7.58
2018-12-13T02:24:43.614Z,7.28
2018-12-13T02:25:46.071Z,7.85
2018-12-13T02:26:48.519Z,7.45
2018-12-13T02:27:50.970Z,7.42
2018-12-13T02:28:53.418Z,8.63
2018-12-13T02:29:55.859Z,7.05
2018-12-13T02:30:58.305Z,7.87
2018-12-13T02:32:00.765Z,7.40
2018-12-13T02:33:03.191Z,7.00
2018-12-13T02:34:05.633Z,6.60
2018-12-13T02:35:08.086Z,6.72
2018-12-13T02:36:10.532Z,6.33
2018-12-13T02:37:12.987Z,6.60
2018-12-13T02:38:15.430Z,7.00
2018-12-13T02:39:17.860Z,7.47
2018-12-13T02:40:20.295Z,7.00
2018-12-13T02:41:22.795Z,6.90
2018-12-13T02:42:25.221Z,6.70
2018-12-13T02:43:27.659Z,7.47
2018-12-13T02:44:30.108Z,8.18
2018-12-13T02:45:32.651Z,7.97
2018-12-13T02:46:35.125Z,8.25
2018-12-13T02:47:37.582Z,7.20
2018-12-13T02:48:40.019Z,7.97
2018-12-13T02:49:42.484Z,7.47
2018-12-13T02:50:44.928Z,6.58
2018-12-13T02:51:47.411Z,6.62
2018-12-13T02:52:49.857Z,6.53
2018-12-13T02:53:52.305Z,6.62
2018-12-13T02:54:54.740Z,7.37
2018-12-13T02:55:57.167Z,6.65
2018-12-13T02:56:59.610Z,7.00
2018-12-13T02:58:02.078Z,7.45
2018-12-13T02:59:04.526Z,6.70
2018-12-13T03:00:07.044Z,6.78
2018-12-13T03:01:09.483Z,6.85
2018-12-13T03:02:11.939Z,7.42
2018-12-13T03:03:14.376Z,6.55
2018-12-13T03:04:16.811Z,6.80
2018-12-13T03:05:19.319Z,7.12
2018-12-13T03:06:21.760Z,7.40
2018-12-13T03:07:24.212Z,7.60
2018-12-13T03:08:26.686Z,7.30
2018-12-13T03:09:29.152Z,7.03
2018-12-13T03:10:31.597Z,7.20
2018-12-13T03:11:34.047Z,7.28
2018-12-13T03:12:36.504Z,8.00
2018-12-13T03:13:38.969Z,7.65
2018-12-13T03:14:41.404Z,7.80
2018-12-13T03:15:43.836Z,7.97
2018-12-13T03:16:46.360Z,8.83
2018-12-13T03:17:48.822Z,8.45
2018-12-13T03:18:51.260Z,8.78
2018-12-13T03:19:53.692Z,8.35
2018-12-13T03:20:56.147Z,8.48
2018-12-13T03:21:58.587Z,8.10
2018-12-13T03:23:01.147Z,8.90
2018-12-13T03:24:03.583Z,8.63
2018-12-13T03:25:06.122Z,9.00
2018-12-13T03:26:08.606Z,8.70
2018-12-13T03:27:11.050Z,8.90
2018-12-13T03:28:13.501Z,9.80
2018-12-13T03:29:15.967Z,9.53
2018-12-13T03:30:18.404Z,9.03
2018-12-13T03:31:20.897Z,8.20
2018-12-13T03:32:23.347Z,9.10
2018-12-13T03:33:25.809Z,10.18
2018-12-13T03:34:28.342Z,10.08
2018-12-13T03:35:30.838Z,10.03
2018-12-13T03:36:33.351Z,9.83
2018-12-13T03:37:35.797Z,10.10
2018-12-13T03:38:38.285Z,10.32
2018-12-13T03:39:40.771Z,9.70
2018-12-13T03:40:43.229Z,11.50
2018-12-13T03:41:45.683Z,11.28
2018-12-13T03:42:48.147Z,10.65
2018-12-13T03:43:50.628Z,11.33
2018-12-13T03:44:53.185Z,12.03
2018-12-13T03:45:55.628Z,11.65
2018-12-13T03:46:58.076Z,12.78
2018-12-13T03:48:00.543Z,11.40
2018-12-13T03:49:03.080Z,11.88
2018-12-13T03:50:05.684Z,12.10
2018-12-13T03:51:08.265Z,12.13
2018-12-13T03:52:10.711Z,12.53
2018-12-13T03:53:13.199Z,12.18
2018-12-13T03:54:15.692Z,12.93
2018-12-13T03:55:18.160Z,13.15
2018-12-13T03:56:20.604Z,13.20
2018-12-13T03:57:23.068Z,12.47
2018-12-13T03:58:25.508Z,12.65
2018-12-13T03:59:28.005Z,13.95
2018-12-13T04:00:30.492Z,12.82
2018-12-13T04:01:32.950Z,12.58
2018-12-13T04:02:35.421Z,13.45
2018-12-13T04:03:37.908Z,12.40
2018-12-13T04:04:40.376Z,13.48
2018-12-13T04:05:42.882Z,13.75
2018-12-13T04:06:45.362Z,13.18
2018-12-13T04:07:47.823Z,13.03
2018-12-13T04:08:50.267Z,13.40
2018-12-13T04:09:52.754Z,12.73
2018-12-13T04:10:55.259Z,12.55
2018-12-13T04:11:57.774Z,12.25
2018-12-13T04:13:00.291Z,13.00
2018-12-13T04:14:02.739Z,12.25
2018-12-13T04:15:05.354Z,15.68
2018-12-13T04:16:07.872Z,13.80
2018-12-13T04:17:11.230Z,13.60
2018-12-13T04:18:13.680Z,13.03
2018-12-13T04:19:16.154Z,13.83
2018-12-13T04:20:18.630Z,13.58
2018-12-13T04:21:21.092Z,13.20
2018-12-13T04:22:23.540Z,13.30
2018-12-13T04:23:25.984Z,14.00
2018-12-13T04:24:29.317Z,14.40
2018-12-13T04:25:31.774Z,14.60
2018-12-13T04:26:34.223Z,14.85
2018-12-13T04:27:36.702Z,14.65
2018-12-13T04:28:39.134Z,14.15
2018-12-13T04:29:41.576Z,13.95
2018-12-13T04:30:44.039Z,14.90
2018-12-13T04:31:46.490Z,14.30
2018-12-13T04:32:48.927Z,14.73
2018-12-13T04:33:51.626Z,15.08
2018-12-13T04:34:54.065Z,14.00
2018-12-13T04:35:56.520Z,14.23
2018-12-13T04:36:58.974Z,13.90
2018-12-13T04:38:01.530Z,14.63
2018-12-13T04:39:06.167Z,13.93
2018-12-13T04:40:08.667Z,13.08
2018-12-13T04:41:11.127Z,13.65
2018-12-13T04:42:13.564Z,14.50
2018-12-13T04:43:16.008Z,14.43
2018-12-13T04:44:18.465Z,15.10
2018-12-13T04:45:20.908Z,14.80
2018-12-13T04:46:23.375Z,13.32
2018-12-13T04:47:25.847Z,13.75
2018-12-13T04:48:28.278Z,14.28
2018-12-13T04:49:30.708Z,15.05
2018-12-13T04:50:33.149Z,14.83
2018-12-13T04:51:35.601Z,15.40
2018-12-13T04:52:38.072Z,14.43
2018-12-13T04:53:40.521Z,16.12
2018-12-13T04:54:42.971Z,15.43
2018-12-13T04:55:45.421Z,13.45
2018-12-13T04:56:47.881Z,16.37
2018-12-13T04:57:50.314Z,15.25
2018-12-13T04:58:52.755Z,13.98
2018-12-13T04:59:55.193Z,15.38
2018-12-13T05:00:57.634Z,14.87
2018-12-13T05:02:00.087Z,14.30
2018-12-13T05:03:02.580Z,13.55
2018-12-13T05:04:05.029Z,13.72
2018-12-13T05:05:07.479Z,12.60
2018-12-13T05:06:09.918Z,15.53
2018-12-13T05:07:12.387Z,14.95
2018-12-13T05:08:14.857Z,15.20
2018-12-13T05:09:17.290Z,14.10
2018-12-13T05:10:31.745Z,14.83
2018-12-13T05:11:34.178Z,13.43
2018-12-13T05:12:36.635Z,15.08
2018-12-13T05:13:39.089Z,14.78
2018-12-13T05:14:41.547Z,14.50
2018-12-13T05:15:43.983Z,15.95
2018-12-13T05:16:46.863Z,15.15
2018-12-13T05:17:49.358Z,15.05
2018-12-13T05:18:51.836Z,16.60
2018-12-13T05:19:54.277Z,15.30
2018-12-13T05:20:56.788Z,15.72
2018-12-13T05:21:59.227Z,15.78
2018-12-13T05:23:01.722Z,15.20
2018-12-13T05:24:04.146Z,15.78
2018-12-13T05:25:06.673Z,14.93
2018-12-13T05:26:09.109Z,14.95
2018-12-13T05:27:11.574Z,15.00
2018-12-13T05:28:14.041Z,14.70
2018-12-13T05:29:16.512Z,14.83
2018-12-13T05:30:18.974Z,15.75
2018-12-13T05:31:21.415Z,15.65
2018-12-13T05:32:23.863Z,14.68
2018-12-13T05:33:26.324Z,15.60
2018-12-13T05:34:28.779Z,15.38
2018-12-13T05:35:31.211Z,15.68
2018-12-13T05:36:33.692Z,17.65
2018-12-13T05:37:36.128Z,16.10
2018-12-13T05:38:38.611Z,15.55
2018-12-13T05:39:41.151Z,14.53
2018-12-13T05:40:43.590Z,15.93
2018-12-13T05:41:46.029Z,15.23
2018-12-13T05:42:48.478Z,16.85
2018-12-13T05:43:53.017Z,15.60
2018-12-13T05:44:55.518Z,16.40
2018-12-13T05:45:57.960Z,16.32
2018-12-13T05:47:00.402Z,15.85
2018-12-13T05:48:02.891Z,17.25
2018-12-13T05:49:05.348Z,16.77
2018-12-13T05:50:07.796Z,16.30
2018-12-13T05:51:10.226Z,16.67
2018-12-13T05:52:12.679Z,16.73
2018-12-13T05:53:15.113Z,17.12
2018-12-13T05:54:17.571Z,17.20
2018-12-13T05:55:20.028Z,17.82
2018-12-13T05:56:22.470Z,18.55
2018-12-13T05:57:24.907Z,18.20
2018-12-13T05:58:27.348Z,18.00
2018-12-13T05:59:29.810Z,17.02
2018-12-13T06:00:32.522Z,16.60
2018-12-13T06:01:34.977Z,18.60
2018-12-13T06:02:37.411Z,18.05
2018-12-13T06:03:39.865Z,19.42
2018-12-13T06:04:42.339Z,17.35
2018-12-13T06:05:44.791Z,19.40
2018-12-13T06:06:47.933Z,18.48
2018-12-13T06:07:54.894Z,18.20
2018-12-13T06:08:55.091Z,18.95
2018-12-13T06:09:57.544Z,19.30
2018-12-13T06:11:00.023Z,18.25
2018-12-13T06:12:02.456Z,21.07
2018-12-13T06:13:04.909Z,18.60
2018-12-13T06:14:07.374Z,18.90
2018-12-13T06:15:09.920Z,19.65
2018-12-13T06:16:12.371Z,18.98
2018-12-13T06:17:14.810Z,19.20
2018-12-13T06:18:17.273Z,18.77
2018-12-13T06:19:19.783Z,18.85
2018-12-13T06:20:22.247Z,19.00
2018-12-13T06:21:24.713Z,19.48
2018-12-13T06:22:27.154Z,19.60
2018-12-13T06:23:29.583Z,19.70
2018-12-13T06:24:32.027Z,18.35
2018-12-13T06:25:34.501Z,20.05
2018-12-13T06:26:37.072Z,19.17
2018-12-13T06:27:39.525Z,18.67
2018-12-13T06:28:41.967Z,20.00
2018-12-13T06:29:48.877Z,20.40
2018-12-13T06:30:48.904Z,19.37
2018-12-13T06:31:51.335Z,19.42
2018-12-13T06:32:53.775Z,19.62
2018-12-13T06:33:56.226Z,20.23
2018-12-13T06:34:58.686Z,20.25
2018-12-13T06:36:01.161Z,19.95
2018-12-13T06:37:03.650Z,21.25
2018-12-13T06:38:06.192Z,19.82
2018-12-13T06:39:08.730Z,19.32
2018-12-13T06:40:15.537Z,20.52
2018-12-13T06:41:15.642Z,20.90
2018-12-13T06:42:18.081Z,20.50
2018-12-13T06:43:24.453Z,19.82
2018-12-13T06:44:26.894Z,20.95
2018-12-13T06:45:29.351Z,21.62
2018-12-13T06:46:31.816Z,19.07
2018-12-13T06:47:34.259Z,20.37
2018-12-13T06:48:36.703Z,20.15
2018-12-13T06:49:39.144Z,20.45
2018-12-13T06:50:41.603Z,19.80
2018-12-13T06:51:44.068Z,21.85
2018-12-13T06:52:46.520Z,22.20
2018-12-13T06:53:48.968Z,20.45
2018-12-13T06:54:51.399Z,21.70
2018-12-13T06:55:53.893Z,22.20
2018-12-13T06:56:56.355Z,21.05
2018-12-13T06:57:58.807Z,20.82
2018-12-13T06:59:01.243Z,21.68
2018-12-13T07:00:05.560Z,22.73
2018-12-13T07:01:08.026Z,22.32
2018-12-13T07:02:10.475Z,22.93
2018-12-13T07:03:12.947Z,20.77
2018-12-13T07:04:15.409Z,22.98
2018-12-13T07:05:17.859Z,20.90
2018-12-13T07:06:20.738Z,22.85
2018-12-13T07:07:23.196Z,23.95
2018-12-13T07:08:25.685Z,22.25
2018-12-13T07:09:28.206Z,22.05
2018-12-13T07:10:30.675Z,23.32
2018-12-13T07:11:33.150Z,23.42
2018-12-13T07:12:35.639Z,23.27
2018-12-13T07:13:38.105Z,23.90
2018-12-13T07:14:40.710Z,22.58
2018-12-13T07:15:43.192Z,22.60
2018-12-13T07:16:45.656Z,21.73
2018-12-13T07:17:48.393Z,22.98
2018-12-13T07:18:50.836Z,24.45
2018-12-13T07:19:53.314Z,22.60
2018-12-13T07:20:55.775Z,22.55
2018-12-13T07:21:58.273Z,23.00
2018-12-13T07:23:00.758Z,23.87
2018-12-13T07:24:03.287Z,25.17
2018-12-13T07:25:05.835Z,25.50
2018-12-13T07:26:08.271Z,23.87
2018-12-13T07:27:10.746Z,23.67
2018-12-13T07:28:13.249Z,25.65
2018-12-13T07:29:15.715Z,23.70
2018-12-13T07:30:18.151Z,23.65
2018-12-13T07:31:20.600Z,20.50
2018-12-13T07:32:23.053Z,23.10
2018-12-13T07:33:25.518Z,21.20
2018-12-13T07:34:27.950Z,21.97
2018-12-13T07:35:30.414Z,21.57
2018-12-13T07:36:32.878Z,22.42
2018-12-13T07:37:35.464Z,21.33
2018-12-13T07:38:37.948Z,20.05
2018-12-13T07:39:40.403Z,21.07
2018-12-13T07:40:42.966Z,20.52
2018-12-13T07:41:45.436Z,20.65
2018-12-13T07:42:47.932Z,21.77
2018-12-13T07:43:50.394Z,20.75
2018-12-13T07:44:52.838Z,20.70
2018-12-13T07:45:55.296Z,21.70
2018-12-13T07:46:57.736Z,22.85
2018-12-13T07:48:00.201Z,81.85
2018-12-13T07:49:02.675Z,31.65
2018-12-13T07:50:06.894Z,29.40
2018-12-13T07:51:09.339Z,46.77
2018-12-13T07:52:11.779Z,19.57
2018-12-13T07:53:14.237Z,18.80
2018-12-13T07:54:16.756Z,19.23
2018-12-13T07:55:19.204Z,19.23
2018-12-13T07:56:21.672Z,17.80
2018-12-13T07:57:24.123Z,19.00
2018-12-13T07:58:26.672Z,18.98
2018-12-13T07:59:29.137Z,19.02
2018-12-13T08:00:31.582Z,19.35
2018-12-13T08:01:34.052Z,17.85
2018-12-13T08:02:36.713Z,20.43
2018-12-13T08:03:39.171Z,18.95
2018-12-13T08:04:41.626Z,17.77
2018-12-13T08:05:44.067Z,19.25
2018-12-13T08:06:46.509Z,18.95
2018-12-13T08:07:48.954Z,19.42
2018-12-13T08:08:51.409Z,18.48
2018-12-13T08:09:53.851Z,18.67
2018-12-13T08:10:56.293Z,19.23
2018-12-13T08:11:58.745Z,18.82
2018-12-13T08:13:01.189Z,18.10
2018-12-13T08:14:03.751Z,18.15
2018-12-13T08:15:06.393Z,18.25
2018-12-13T08:16:08.843Z,19.40
2018-12-13T08:17:11.284Z,19.15
2018-12-13T08:18:13.782Z,17.20
2018-12-13T08:19:16.235Z,17.62
2018-12-13T08:20:18.701Z,19.50
2018-12-13T08:21:21.155Z,18.82
2018-12-13T08:22:23.599Z,18.55
2018-12-13T08:23:26.073Z,17.90
2018-12-13T08:24:28.553Z,16.95
2018-12-13T08:25:31.042Z,17.85
2018-12-13T08:26:33.506Z,18.85
2018-12-13T08:27:35.948Z,18.87
2018-12-13T08:28:38.400Z,16.93
2018-12-13T08:29:40.874Z,17.80
2018-12-13T08:30:43.330Z,17.12
2018-12-13T08:31:45.767Z,18.30
2018-12-13T08:32:48.239Z,17.52
2018-12-13T08:33:50.691Z,16.42
2018-12-13T08:34:53.178Z,23.15
2018-12-13T08:35:55.803Z,20.05
2018-12-13T08:36:58.250Z,25.57
2018-12-13T08:38:00.692Z,23.30
2018-12-13T08:39:05.227Z,38.42
2018-12-13T08:40:07.702Z,19.20
2018-12-13T08:41:10.143Z,17.62
2018-12-13T08:42:12.584Z,16.65
2018-12-13T08:43:15.025Z,17.98
2018-12-13T08:44:17.521Z,17.30
2018-12-13T08:45:19.981Z,17.62
2018-12-13T08:46:22.447Z,16.75
2018-12-13T08:47:24.907Z,17.67
2018-12-13T08:48:27.332Z,17.92
2018-12-13T08:49:29.780Z,16.50
2018-12-13T08:50:32.245Z,17.32
2018-12-13T08:51:34.710Z,16.75
2018-12-13T08:52:37.154Z,16.40
2018-12-13T08:53:39.605Z,16.90
2018-12-13T08:54:42.063Z,16.65
2018-12-13T08:55:44.524Z,15.88
2018-12-13T08:56:46.978Z,17.55
2018-12-13T08:57:49.419Z,17.70
2018-12-13T08:58:51.855Z,16.70
2018-12-13T08:59:54.300Z,16.25
2018-12-13T09:00:56.756Z,16.20
2018-12-13T09:01:59.219Z,15.38
2018-12-13T09:03:01.871Z,15.65
2018-12-13T09:04:04.310Z,17.52
2018-12-13T09:05:06.742Z,16.57
2018-12-13T09:06:09.187Z,15.48
2018-12-13T09:07:11.670Z,17.12
2018-12-13T09:08:14.117Z,17.65
2018-12-13T09:09:16.555Z,17.07
2018-12-13T09:10:19.004Z,16.27
2018-12-13T09:11:21.468Z,18.07
2018-12-13T09:12:23.922Z,17.92
2018-12-13T09:13:26.389Z,17.77
2018-12-13T09:14:28.862Z,16.40
2018-12-13T09:15:31.300Z,17.65
2018-12-13T09:16:33.753Z,17.87
2018-12-13T09:17:36.214Z,17.30
2018-12-13T09:18:38.651Z,17.42
2018-12-13T09:19:41.106Z,18.32
2018-12-13T09:20:43.554Z,17.62
2018-12-13T09:21:46.011Z,17.42
2018-12-13T09:22:48.468Z,17.35
2018-12-13T09:23:50.907Z,17.37
2018-12-13T09:24:53.353Z,19.00
2018-12-13T09:25:55.796Z,19.32
2018-12-13T09:26:58.256Z,18.37
2018-12-13T09:28:00.722Z,27.73
2018-12-13T09:29:03.177Z,27.42
2018-12-13T09:30:06.236Z,19.82
2018-12-13T09:31:08.680Z,19.80
2018-12-13T09:32:11.135Z,17.57
2018-12-13T09:33:13.574Z,18.15
2018-12-13T09:34:16.020Z,16.85
2018-12-13T09:35:18.464Z,18.95
2018-12-13T09:36:20.899Z,19.17
2018-12-13T09:37:23.356Z,18.77
2018-12-13T09:38:27.293Z,17.50
2018-12-13T09:39:30.082Z,16.85
2018-12-13T09:40:32.515Z,18.12
2018-12-13T09:41:34.959Z,16.97
2018-12-13T09:42:37.434Z,17.92
2018-12-13T09:43:39.921Z,17.00
2018-12-13T09:44:42.351Z,17.42
2018-12-13T09:45:44.817Z,17.90
2018-12-13T09:46:47.256Z,19.80
2018-12-13T09:47:49.715Z,17.40
2018-12-13T09:48:52.176Z,17.20
2018-12-13T09:49:54.638Z,17.77
2018-12-13T09:50:57.171Z,17.50
2018-12-13T09:51:59.701Z,19.20
2018-12-13T09:53:02.153Z,18.62
2018-12-13T09:54:04.615Z,17.30
2018-12-13T09:55:07.068Z,17.40
2018-12-13T09:56:09.516Z,17.57
2018-12-13T09:57:11.960Z,17.70
2018-12-13T09:58:14.419Z,18.17
2018-12-13T09:59:16.880Z,16.80
2018-12-13T10:00:19.319Z,18.77
2018-12-13T10:01:21.777Z,17.80
2018-12-13T10:02:24.275Z,17.27
2018-12-13T10:03:26.724Z,17.27
2018-12-13T10:04:29.180Z,17.95
2018-12-13T10:05:31.619Z,18.07
2018-12-13T10:06:34.052Z,17.02
2018-12-13T10:07:36.495Z,18.30
2018-12-13T10:08:38.950Z,18.35
2018-12-13T10:09:41.413Z,17.62
2018-12-13T10:10:43.952Z,16.80
2018-12-13T10:11:46.407Z,17.40
2018-12-13T10:12:48.854Z,17.05
2018-12-13T10:13:51.367Z,17.50
2018-12-13T10:14:53.832Z,17.07
2018-12-13T10:15:56.303Z,17.92
2018-12-13T10:16:58.754Z,17.15
2018-12-13T10:18:01.233Z,16.82
2018-12-13T10:19:03.776Z,16.90
2018-12-13T10:20:06.503Z,24.25
2018-12-13T10:21:08.954Z,18.73
2018-12-13T10:22:11.943Z,24.63
2018-12-13T10:23:14.601Z,30.88
2018-12-13T10:24:17.071Z,18.17
2018-12-13T10:25:19.507Z,17.00
2018-12-13T10:26:21.973Z,16.67
2018-12-13T10:27:24.423Z,14.83
2018-12-13T10:28:26.876Z,16.20
2018-12-13T10:29:29.375Z,15.10
2018-12-13T10:30:31.926Z,16.00
2018-12-13T10:31:34.369Z,16.07
2018-12-13T10:32:36.811Z,15.38
2018-12-13T10:33:39.247Z,16.45
2018-12-13T10:34:41.796Z,14.65
2018-12-13T10:35:44.284Z,15.80
2018-12-13T10:36:46.728Z,15.93
2018-12-13T10:37:49.308Z,15.00
2018-12-13T10:38:53.201Z,15.50
2018-12-13T10:39:56.055Z,16.55
2018-12-13T10:40:58.500Z,16.02
2018-12-13T10:42:00.939Z,16.37
2018-12-13T10:43:03.387Z,16.15
2018-12-13T10:44:05.824Z,16.57
2018-12-13T10:45:08.305Z,17.27
2018-12-13T10:46:10.845Z,16.70
2018-12-13T10:47:13.287Z,15.55
2018-12-13T10:48:15.737Z,15.70
2018-12-13T10:49:18.213Z,17.17
2018-12-13T10:50:20.678Z,17.32
2018-12-13T10:51:23.181Z,16.80
2018-12-13T10:52:25.637Z,16.60
2018-12-13T10:53:28.080Z,17.45
2018-12-13T10:54:30.607Z,17.87
2018-12-13T10:55:33.066Z,17.05
2018-12-13T10:56:35.563Z,16.05
2018-12-13T10:57:38.095Z,16.35
2018-12-13T10:58:40.540Z,16.02
2018-12-13T10:59:42.987Z,14.87
2018-12-13T11:02:29.971Z,16.17
2018-12-13T11:03:35.261Z,16.05
2018-12-13T11:04:37.715Z,13.53
2018-12-13T11:05:40.158Z,13.90
2018-12-13T11:06:42.653Z,14.60
2018-12-13T11:07:45.087Z,13.95
2018-12-13T11:08:47.540Z,14.25
2018-12-13T11:09:49.982Z,14.03
2018-12-13T11:10:52.512Z,14.18
2018-12-13T11:11:54.975Z,15.13
2018-12-13T11:12:57.418Z,13.65
2018-12-13T11:13:59.860Z,14.83
2018-12-13T11:15:02.303Z,14.18
2018-12-13T11:16:04.774Z,15.13
2018-12-13T11:17:07.240Z,14.80
2018-12-13T11:18:09.708Z,14.15
2018-12-13T11:19:12.159Z,13.25
2018-12-13T11:20:14.603Z,13.40
2018-12-13T11:21:17.508Z,13.20
2018-12-13T11:22:20.150Z,13.55
2018-12-13T11:23:22.600Z,13.93
2018-12-13T11:24:25.049Z,13.53
2018-12-13T11:25:27.501Z,12.43
2018-12-13T11:26:29.963Z,12.37
2018-12-13T11:27:40.479Z,13.83
2018-12-13T11:28:55.081Z,12.20
2018-12-13T11:30:05.483Z,13.45
2018-12-13T11:31:07.972Z,12.53
2018-12-13T11:32:10.439Z,13.08
2018-12-13T11:33:12.996Z,27.93
2018-12-13T11:34:15.456Z,17.80
2018-12-13T11:35:17.903Z,25.37
2018-12-13T11:36:20.545Z,37.17
2018-12-13T11:37:22.994Z,18.00
2018-12-13T11:38:25.487Z,14.28
2018-12-13T11:39:28.002Z,14.40
2018-12-13T11:40:30.826Z,12.00
2018-12-13T11:41:33.290Z,11.33
2018-12-13T11:42:35.748Z,12.98
2018-12-13T11:43:38.306Z,13.10
2018-12-13T11:44:40.739Z,13.75
2018-12-13T11:45:43.187Z,12.18
2018-12-13T11:46:45.655Z,13.88
2018-12-13T11:47:48.110Z,14.38
2018-12-13T11:48:50.834Z,13.05
2018-12-13T11:49:53.296Z,12.07
2018-12-13T11:50:55.768Z,12.50
2018-12-13T11:51:58.210Z,12.93
2018-12-13T11:53:00.664Z,12.68
2018-12-13T11:54:05.698Z,12.37
2018-12-13T11:56:43.994Z,12.90
2018-12-13T11:57:46.439Z,11.95
2018-12-13T11:58:48.895Z,12.10
2018-12-13T11:59:51.338Z,12.60
2018-12-13T12:00:53.778Z,11.55
2018-12-13T12:01:56.220Z,12.95
2018-12-13T12:02:58.660Z,13.22
2018-12-13T12:04:01.528Z,13.38
2018-12-13T12:05:04.766Z,13.43
2018-12-13T12:06:07.280Z,12.98
2018-12-13T12:07:09.738Z,12.05
2018-12-13T12:08:12.208Z,12.65
2018-12-13T12:09:14.679Z,13.45
2018-12-13T12:10:17.214Z,12.18
2018-12-13T12:11:19.688Z,12.05
2018-12-13T12:12:22.149Z,10.53
2018-12-13T12:13:24.611Z,12.40
2018-12-13T12:14:27.090Z,11.48
2018-12-13T12:15:29.627Z,12.60
2018-12-13T12:16:32.068Z,12.40
2018-12-13T12:17:34.512Z,12.15
2018-12-13T12:18:37.078Z,12.82
2018-12-13T12:19:39.738Z,12.75
2018-12-13T12:20:42.199Z,12.40
2018-12-13T12:21:44.647Z,12.85
2018-12-13T12:22:47.100Z,10.50
2018-12-13T12:23:49.544Z,12.40
2018-12-13T12:24:52.024Z,11.45
2018-12-13T12:25:54.496Z,12.68
2018-12-13T12:26:56.961Z,11.83
2018-12-13T12:27:59.403Z,12.25
2018-12-13T12:29:01.864Z,13.18
2018-12-13T12:30:05.359Z,12.20
2018-12-13T12:31:07.795Z,12.45
2018-12-13T12:32:10.358Z,12.98
2018-12-13T12:33:12.798Z,12.35
2018-12-13T12:34:15.255Z,12.90
2018-12-13T12:35:17.719Z,12.53
2018-12-13T12:36:20.182Z,13.38
2018-12-13T12:37:22.660Z,12.15
2018-12-13T12:38:25.175Z,12.40
2018-12-13T12:39:27.612Z,11.57
2018-12-13T12:40:30.063Z,12.63
2018-12-13T12:41:32.510Z,12.23
2018-12-13T12:42:34.947Z,12.58
2018-12-13T12:43:37.402Z,12.70
2018-12-13T12:44:41.233Z,11.97
2018-12-13T12:45:43.695Z,12.63
2018-12-13T12:46:46.159Z,14.13
2018-12-13T12:47:48.592Z,14.13
2018-12-13T12:48:51.039Z,12.58
2018-12-13T12:49:53.514Z,12.60
2018-12-13T12:50:55.968Z,11.73
2018-12-13T12:51:58.422Z,13.30
2018-12-13T12:53:00.857Z,12.07
2018-12-13T12:54:03.388Z,11.78
2018-12-13T12:55:06.032Z,12.30
2018-12-13T12:56:08.541Z,11.33
2018-12-13T12:57:13.355Z,12.40
2018-12-13T12:58:16.118Z,11.90
2018-12-13T12:59:18.599Z,12.63
2018-12-13T13:00:21.040Z,11.97
2018-12-13T13:01:23.818Z,13.10
2018-12-13T13:02:26.557Z,12.37
2018-12-13T13:03:29.945Z,12.70
2018-12-13T13:04:34.462Z,12.50
2018-12-13T13:05:36.923Z,14.13
2018-12-13T13:06:39.428Z,19.67
2018-12-13T13:07:42.623Z,14.03
2018-12-13T13:08:45.803Z,17.98
2018-12-13T13:09:48.337Z,12.33
2018-12-13T13:10:50.801Z,12.65
2018-12-13T13:11:53.383Z,12.85
2018-12-13T13:12:55.841Z,12.20
2018-12-13T13:13:58.959Z,12.53
2018-12-13T13:15:01.561Z,12.25
2018-12-13T13:16:04.035Z,12.30
2018-12-13T13:17:06.632Z,13.10
2018-12-13T13:18:09.179Z,13.40
2018-12-13T13:19:11.997Z,14.60
2018-12-13T13:20:14.510Z,12.15
2018-12-13T13:21:17.047Z,12.35
2018-12-13T13:22:19.665Z,12.43
2018-12-13T13:23:22.153Z,12.63
2018-12-13T13:24:24.608Z,12.78
2018-12-13T13:25:27.584Z,13.85
2018-12-13T13:26:30.076Z,13.85
2018-12-13T13:27:32.615Z,13.62
2018-12-13T13:28:35.112Z,13.20
2018-12-13T13:29:37.543Z,14.10
2018-12-13T13:30:40.144Z,14.25
2018-12-13T13:31:42.847Z,13.15
2018-12-13T13:32:45.305Z,14.50